createdAt,value
2023-01-17T00:00:47.367Z,977.99
2023-01-17T00:01:47.359Z,978.01
2023-01-17T00:02:47.396Z,977.97
2023-01-17T00:03:47.398Z,978.02
2023-01-17T00:04:47.342Z,978.06
2023-01-17T00:05:47.352Z,977.98
2023-01-17T00:06:47.328Z,978.00
2023-01-17T00:07:47.324Z,977.95
2023-01-17T00:08:47.314Z,978.01
2023-01-17T00:09:47.315Z,978.03
2023-01-17T00:10:47.331Z,978.05
2023-01-17T00:11:47.299Z,978.03
2023-01-17T00:12:47.290Z,978.05
2023-01-17T00:13:47.286Z,978.03
2023-01-17T00:14:47.276Z,978.06
2023-01-17T00:15:47.397Z,978.04
2023-01-17T00:16:47.268Z,978.08
2023-01-17T00:17:47.259Z,978.10
2023-01-17T00:18:47.279Z,978.13
2023-01-17T00:19:47.247Z,978.10
2023-01-17T00:20:47.399Z,978.10
2023-01-17T00:21:47.234Z,978.10
2023-01-17T00:22:47.228Z,978.10
2023-01-17T00:23:47.229Z,978.14
2023-01-17T00:24:47.214Z,978.20
2023-01-17T00:25:47.214Z,978.13
2023-01-17T00:26:47.202Z,978.17
2023-01-17T00:27:47.199Z,978.16
2023-01-17T00:28:47.199Z,978.18
2023-01-17T00:29:47.185Z,978.18
2023-01-17T00:30:47.184Z,978.18
2023-01-17T00:31:47.251Z,978.17
2023-01-17T00:32:47.167Z,978.23
2023-01-17T00:33:47.162Z,978.15
2023-01-17T00:34:47.174Z,978.21
2023-01-17T00:35:47.146Z,978.20
2023-01-17T00:36:47.141Z,978.19
2023-01-17T00:37:47.133Z,978.17
2023-01-17T00:38:47.131Z,978.19
2023-01-17T00:39:47.124Z,978.20
2023-01-17T00:40:47.114Z,978.27
2023-01-17T00:41:47.109Z,978.22
2023-01-17T00:42:47.112Z,978.35
2023-01-17T00:43:47.096Z,978.31
2023-01-17T00:44:47.092Z,978.37
2023-01-17T00:45:47.082Z,978.38
2023-01-17T00:46:47.134Z,978.42
2023-01-17T00:47:47.068Z,978.44
2023-01-17T00:48:47.067Z,978.47
2023-01-17T00:49:47.061Z,978.49
2023-01-17T00:50:47.074Z,978.47
2023-01-17T00:51:47.050Z,978.52
2023-01-17T00:52:47.040Z,978.51
2023-01-17T00:53:47.030Z,978.53
2023-01-17T00:54:47.031Z,978.56
2023-01-17T00:55:47.026Z,978.58
2023-01-17T00:56:47.012Z,978.62
2023-01-17T00:57:47.013Z,978.60
2023-01-17T00:58:47.036Z,978.60
2023-01-17T00:59:46.993Z,978.62
2023-01-17T01:00:47.099Z,978.59
2023-01-17T01:01:47.215Z,978.62
2023-01-17T01:02:47.082Z,978.66
2023-01-17T01:03:46.972Z,978.65
2023-01-17T01:04:46.965Z,978.59
2023-01-17T01:05:46.959Z,978.66
2023-01-17T01:06:46.974Z,978.68
2023-01-17T01:07:46.944Z,978.67
2023-01-17T01:08:46.948Z,978.71
2023-01-17T01:09:46.931Z,978.76
2023-01-17T01:10:46.924Z,978.75
2023-01-17T01:11:46.915Z,978.82
2023-01-17T01:12:46.915Z,978.84
2023-01-17T01:13:46.906Z,978.83
2023-01-17T01:14:46.906Z,978.90
2023-01-17T01:15:46.891Z,978.91
2023-01-17T01:16:46.886Z,978.94
2023-01-17T01:17:46.880Z,978.96
2023-01-17T01:18:46.873Z,978.97
2023-01-17T01:19:46.869Z,979.02
2023-01-17T01:20:46.872Z,979.02
2023-01-17T01:21:46.853Z,979.01
2023-01-17T01:22:46.873Z,979.05
2023-01-17T01:23:46.840Z,978.96
2023-01-17T01:24:46.891Z,979.04
2023-01-17T01:25:46.831Z,979.08
2023-01-17T01:26:46.821Z,979.09
2023-01-17T01:27:46.814Z,979.09
2023-01-17T01:28:46.808Z,979.14
2023-01-17T01:29:46.958Z,979.19
2023-01-17T01:30:46.798Z,979.22
2023-01-17T01:31:46.834Z,979.25
2023-01-17T01:32:46.782Z,979.33
2023-01-17T01:33:46.776Z,979.32
2023-01-17T01:34:46.970Z,979.34
2023-01-17T01:35:46.764Z,979.36
2023-01-17T01:36:46.761Z,979.38
2023-01-17T01:37:46.753Z,979.43
2023-01-17T01:38:46.775Z,979.45
2023-01-17T01:39:46.747Z,979.44
2023-01-17T01:40:46.730Z,979.45
2023-01-17T01:41:46.726Z,979.53
2023-01-17T01:42:46.718Z,979.60
2023-01-17T01:43:46.726Z,979.62
2023-01-17T01:44:46.714Z,979.59
2023-01-17T01:45:46.729Z,979.67
2023-01-17T01:46:46.690Z,979.65
2023-01-17T01:47:46.685Z,979.66
2023-01-17T01:48:46.677Z,979.70
2023-01-17T01:49:46.671Z,979.80
2023-01-17T01:50:46.667Z,979.73
2023-01-17T01:51:46.660Z,979.76
2023-01-17T01:52:46.656Z,979.80
2023-01-17T01:53:46.650Z,979.79
2023-01-17T01:54:46.661Z,979.79
2023-01-17T01:55:46.633Z,979.82
2023-01-17T01:56:46.627Z,979.87
2023-01-17T01:57:46.618Z,979.84
2023-01-17T01:58:46.611Z,979.88
2023-01-17T01:59:46.608Z,979.83
2023-01-17T02:00:46.739Z,979.89
2023-01-17T02:01:46.716Z,979.94
2023-01-17T02:02:46.588Z,979.97
2023-01-17T02:03:46.616Z,979.95
2023-01-17T02:04:46.573Z,980.05
2023-01-17T02:05:46.582Z,980.06
2023-01-17T02:06:46.562Z,980.03
2023-01-17T02:07:46.553Z,979.97
2023-01-17T02:08:46.549Z,980.05
2023-01-17T02:09:46.540Z,980.03
2023-01-17T02:10:46.610Z,980.07
2023-01-17T02:11:46.528Z,980.10
2023-01-17T02:12:46.532Z,980.12
2023-01-17T02:13:46.512Z,980.11
2023-01-17T02:14:46.506Z,980.13
2023-01-17T02:15:46.502Z,980.15
2023-01-17T02:16:46.579Z,980.15
2023-01-17T02:17:46.492Z,980.16
2023-01-17T02:18:46.482Z,980.16
2023-01-17T02:19:46.477Z,980.15
2023-01-17T02:20:46.468Z,980.15
2023-01-17T02:21:46.464Z,980.22
2023-01-17T02:22:46.456Z,980.18
2023-01-17T02:23:46.447Z,980.30
2023-01-17T02:24:46.444Z,980.30
2023-01-17T02:25:46.451Z,980.21
2023-01-17T02:26:46.453Z,980.21
2023-01-17T02:27:46.429Z,980.34
2023-01-17T02:28:46.416Z,980.36
2023-01-17T02:29:46.409Z,980.39
2023-01-17T02:30:46.401Z,980.38
2023-01-17T02:31:46.468Z,980.36
2023-01-17T02:32:46.386Z,980.39
2023-01-17T02:33:46.385Z,980.44
2023-01-17T02:34:46.382Z,980.41
2023-01-17T02:35:46.368Z,980.45
2023-01-17T02:36:46.361Z,980.47
2023-01-17T02:37:46.356Z,980.41
2023-01-17T02:38:46.347Z,980.45
2023-01-17T02:39:46.344Z,980.48
2023-01-17T02:40:46.334Z,980.45
2023-01-17T02:41:46.338Z,980.51
2023-01-17T02:42:46.341Z,980.47
2023-01-17T02:43:46.321Z,980.55
2023-01-17T02:44:46.307Z,980.51
2023-01-17T02:45:46.376Z,980.63
2023-01-17T02:46:46.297Z,980.59
2023-01-17T02:47:46.290Z,980.67
2023-01-17T02:48:46.292Z,980.63
2023-01-17T02:49:46.284Z,980.63
2023-01-17T02:50:46.265Z,980.66
2023-01-17T02:51:46.307Z,980.65
2023-01-17T02:52:46.254Z,980.70
2023-01-17T02:53:46.253Z,980.70
2023-01-17T02:54:46.239Z,980.70
2023-01-17T02:55:46.235Z,980.72
2023-01-17T02:56:46.225Z,980.72
2023-01-17T02:57:46.227Z,980.76
2023-01-17T02:58:46.233Z,980.75
2023-01-17T02:59:46.214Z,980.78
2023-01-17T03:00:46.332Z,980.79
2023-01-17T03:01:46.375Z,980.79
2023-01-17T03:02:46.215Z,980.83
2023-01-17T03:03:46.185Z,980.81
2023-01-17T03:04:46.173Z,980.80
2023-01-17T03:05:46.175Z,980.83
2023-01-17T03:06:46.160Z,980.83
2023-01-17T03:07:46.157Z,980.87
2023-01-17T03:08:46.163Z,980.85
2023-01-17T03:09:46.145Z,980.85
2023-01-17T03:10:46.155Z,980.86
2023-01-17T03:11:46.133Z,980.87
2023-01-17T03:12:46.139Z,980.82
2023-01-17T03:13:46.467Z,980.88
2023-01-17T03:14:46.127Z,980.84
2023-01-17T03:15:46.105Z,980.85
2023-01-17T03:16:46.115Z,980.85
2023-01-17T03:17:46.091Z,980.80
2023-01-17T03:18:46.084Z,980.80
2023-01-17T03:19:46.076Z,980.85
2023-01-17T03:20:46.070Z,980.89
2023-01-17T03:21:46.068Z,980.92
2023-01-17T03:22:46.058Z,980.93
2023-01-17T03:23:46.054Z,980.96
2023-01-17T03:24:46.040Z,980.93
2023-01-17T03:25:46.038Z,980.99
2023-01-17T03:26:46.029Z,981.01
2023-01-17T03:27:46.029Z,981.03
2023-01-17T03:28:46.031Z,981.06
2023-01-17T03:29:46.011Z,981.06
2023-01-17T03:30:46.080Z,981.06
2023-01-17T03:31:45.995Z,981.05
2023-01-17T03:32:46.003Z,981.07
2023-01-17T03:33:45.986Z,981.08
2023-01-17T03:34:45.988Z,981.14
2023-01-17T03:35:45.975Z,981.10
2023-01-17T03:36:45.969Z,981.13
2023-01-17T03:37:45.957Z,981.13
2023-01-17T03:38:45.949Z,981.13
2023-01-17T03:39:45.943Z,981.18
2023-01-17T03:40:45.945Z,981.11
2023-01-17T03:41:45.936Z,981.19
2023-01-17T03:42:45.921Z,981.17
2023-01-17T03:43:45.939Z,981.19
2023-01-17T03:44:45.910Z,981.19
2023-01-17T03:45:45.962Z,981.22
2023-01-17T03:46:45.914Z,981.20
2023-01-17T03:47:45.889Z,981.20
2023-01-17T03:48:45.885Z,981.21
2023-01-17T03:49:45.880Z,981.19
2023-01-17T03:50:45.873Z,981.24
2023-01-17T03:51:45.874Z,981.22
2023-01-17T03:52:45.857Z,981.24
2023-01-17T03:53:45.849Z,981.26
2023-01-17T03:54:45.843Z,981.31
2023-01-17T03:55:45.839Z,981.30
2023-01-17T03:56:45.827Z,981.31
2023-01-17T03:57:45.835Z,981.35
2023-01-17T03:58:45.813Z,981.38
2023-01-17T03:59:45.816Z,981.42
2023-01-17T04:00:45.863Z,981.41
2023-01-17T04:01:45.921Z,981.39
2023-01-17T04:02:45.875Z,981.46
2023-01-17T04:03:45.796Z,981.43
2023-01-17T04:04:45.781Z,981.49
2023-01-17T04:05:45.781Z,981.52
2023-01-17T04:06:45.783Z,981.51
2023-01-17T04:07:45.761Z,981.49
2023-01-17T04:08:45.750Z,981.52
2023-01-17T04:09:45.742Z,981.49
2023-01-17T04:10:45.734Z,981.52
2023-01-17T04:11:45.728Z,981.50
2023-01-17T04:12:45.720Z,981.50
2023-01-17T04:13:45.724Z,981.56
2023-01-17T04:14:45.710Z,981.54
2023-01-17T04:15:45.711Z,981.55
2023-01-17T04:16:45.770Z,981.57
2023-01-17T04:17:45.689Z,981.62
2023-01-17T04:18:46.048Z,981.59
2023-01-17T04:19:45.677Z,981.62
2023-01-17T04:20:45.668Z,981.59
2023-01-17T04:21:45.664Z,981.57
2023-01-17T04:22:45.652Z,981.58
2023-01-17T04:23:45.648Z,981.54
2023-01-17T04:24:45.640Z,981.54
2023-01-17T04:25:45.643Z,981.59
2023-01-17T04:26:45.628Z,981.52
2023-01-17T04:27:45.622Z,981.56
2023-01-17T04:28:45.618Z,981.58
2023-01-17T04:29:46.804Z,981.59
2023-01-17T04:30:45.637Z,981.55
2023-01-17T04:31:45.663Z,981.57
2023-01-17T04:32:45.588Z,981.54
2023-01-17T04:33:45.587Z,981.62
2023-01-17T04:34:45.598Z,981.66
2023-01-17T04:35:45.572Z,981.62
2023-01-17T04:36:45.559Z,981.55
2023-01-17T04:37:45.553Z,981.59
2023-01-17T04:38:45.551Z,981.60
2023-01-17T04:39:45.544Z,981.60
2023-01-17T04:40:45.547Z,981.64
2023-01-17T04:41:45.545Z,981.57
2023-01-17T04:42:45.521Z,981.62
2023-01-17T04:43:45.518Z,981.63
2023-01-17T04:44:45.506Z,981.61
2023-01-17T04:45:45.731Z,981.63
2023-01-17T04:46:45.494Z,981.63
2023-01-17T04:47:45.493Z,981.65
2023-01-17T04:48:45.483Z,981.66
2023-01-17T04:49:45.474Z,981.67
2023-01-17T04:50:45.493Z,981.71
2023-01-17T04:51:45.460Z,981.77
2023-01-17T04:52:45.455Z,981.73
2023-01-17T04:53:45.450Z,981.73
2023-01-17T04:54:45.444Z,981.75
2023-01-17T04:55:45.438Z,981.69
2023-01-17T04:56:45.433Z,981.69
2023-01-17T04:57:45.434Z,981.72
2023-01-17T04:58:45.417Z,981.67
2023-01-17T04:59:45.408Z,981.68
2023-01-17T05:00:45.543Z,981.67
2023-01-17T05:01:45.458Z,981.64
2023-01-17T05:02:45.421Z,981.67
2023-01-17T05:03:45.384Z,981.64
2023-01-17T05:04:45.371Z,981.65
2023-01-17T05:05:45.367Z,981.60
2023-01-17T05:06:45.386Z,981.63
2023-01-17T05:07:45.355Z,981.60
2023-01-17T05:08:45.349Z,981.65
2023-01-17T05:09:45.348Z,981.65
2023-01-17T05:10:45.337Z,981.59
2023-01-17T05:11:45.334Z,981.64
2023-01-17T05:12:45.324Z,981.65
2023-01-17T05:13:45.314Z,981.66
2023-01-17T05:14:45.304Z,981.65
2023-01-17T05:15:45.355Z,981.68
2023-01-17T05:16:45.297Z,981.74
2023-01-17T05:17:45.292Z,981.70
2023-01-17T05:18:45.491Z,981.76
2023-01-17T05:19:45.276Z,981.81
2023-01-17T05:20:45.263Z,981.81
2023-01-17T05:21:45.260Z,981.84
2023-01-17T05:22:45.275Z,981.85
2023-01-17T05:23:45.249Z,981.87
2023-01-17T05:24:45.238Z,981.84
2023-01-17T05:25:45.237Z,981.86
2023-01-17T05:26:45.228Z,981.97
2023-01-17T05:27:45.220Z,981.98
2023-01-17T05:28:45.211Z,981.99
2023-01-17T05:29:45.214Z,982.05
2023-01-17T05:30:45.254Z,982.03
2023-01-17T05:31:45.194Z,982.02
2023-01-17T05:32:45.184Z,981.97
2023-01-17T05:33:45.184Z,982.03
2023-01-17T05:34:45.173Z,982.04
2023-01-17T05:35:45.172Z,982.05
2023-01-17T05:36:45.159Z,982.09
2023-01-17T05:37:45.161Z,982.08
2023-01-17T05:38:45.163Z,982.13
2023-01-17T05:39:45.156Z,982.07
2023-01-17T05:40:45.141Z,982.09
2023-01-17T05:41:45.140Z,982.06
2023-01-17T05:42:45.121Z,982.05
2023-01-17T05:43:45.111Z,982.07
2023-01-17T05:44:45.103Z,982.06
2023-01-17T05:45:45.098Z,982.07
2023-01-17T05:46:45.105Z,982.07
2023-01-17T05:47:45.088Z,982.03
2023-01-17T05:48:45.081Z,982.04
2023-01-17T05:49:45.980Z,982.08
2023-01-17T05:50:45.071Z,982.07
2023-01-17T05:51:45.057Z,982.08
2023-01-17T05:52:45.059Z,982.06
2023-01-17T05:53:45.046Z,982.10
2023-01-17T05:54:45.061Z,982.10
2023-01-17T05:55:45.038Z,982.14
2023-01-17T05:56:45.023Z,982.10
2023-01-17T05:57:45.018Z,982.17
2023-01-17T05:58:45.027Z,982.12
2023-01-17T05:59:45.033Z,982.17
2023-01-17T06:00:44.999Z,982.17
2023-01-17T06:01:44.994Z,982.17
2023-01-17T06:02:45.015Z,982.22
2023-01-17T06:03:44.991Z,982.22
2023-01-17T06:04:45.103Z,982.19
2023-01-17T06:05:45.010Z,982.21
2023-01-17T06:06:44.960Z,982.25
2023-01-17T06:07:44.953Z,982.19
2023-01-17T06:08:44.951Z,982.22
2023-01-17T06:09:44.948Z,982.20
2023-01-17T06:10:44.953Z,982.23
2023-01-17T06:11:44.932Z,982.29
2023-01-17T06:12:44.923Z,982.25
2023-01-17T06:13:44.934Z,982.27
2023-01-17T06:14:44.908Z,982.25
2023-01-17T06:15:44.952Z,982.29
2023-01-17T06:16:44.891Z,982.21
2023-01-17T06:17:44.892Z,982.23
2023-01-17T06:18:44.877Z,982.29
2023-01-17T06:19:44.870Z,982.25
2023-01-17T06:20:44.869Z,982.27
2023-01-17T06:21:44.860Z,982.30
2023-01-17T06:22:44.850Z,982.31
2023-01-17T06:23:45.194Z,982.34
2023-01-17T06:24:44.842Z,982.31
2023-01-17T06:25:44.844Z,982.37
2023-01-17T06:26:44.849Z,982.35
2023-01-17T06:27:44.818Z,982.38
2023-01-17T06:28:44.809Z,982.37
2023-01-17T06:29:44.804Z,982.42
2023-01-17T06:30:44.801Z,982.44
2023-01-17T06:31:44.790Z,982.47
2023-01-17T06:32:44.784Z,982.48
2023-01-17T06:33:44.774Z,982.46
2023-01-17T06:34:44.770Z,982.50
2023-01-17T06:35:44.761Z,982.51
2023-01-17T06:36:44.759Z,982.53
2023-01-17T06:37:44.749Z,982.53
2023-01-17T06:38:44.749Z,982.54
2023-01-17T06:39:44.739Z,982.54
2023-01-17T06:40:44.732Z,982.54
2023-01-17T06:41:44.728Z,982.61
2023-01-17T06:42:44.745Z,982.61
2023-01-17T06:43:44.711Z,982.62
2023-01-17T06:44:44.701Z,982.60
2023-01-17T06:45:44.694Z,982.60
2023-01-17T06:46:44.748Z,982.62
2023-01-17T06:47:44.689Z,982.63
2023-01-17T06:48:44.678Z,982.61
2023-01-17T06:49:44.667Z,982.62
2023-01-17T06:50:44.663Z,982.60
2023-01-17T06:51:44.660Z,982.64
2023-01-17T06:52:44.658Z,982.62
2023-01-17T06:53:44.643Z,982.63
2023-01-17T06:54:44.648Z,982.60
2023-01-17T06:55:44.662Z,982.61
2023-01-17T06:56:44.624Z,982.63
2023-01-17T06:57:44.617Z,982.66
2023-01-17T06:58:44.643Z,982.67
2023-01-17T06:59:44.603Z,982.67
2023-01-17T07:00:44.707Z,982.66
2023-01-17T07:01:44.670Z,982.63
2023-01-17T07:02:44.584Z,982.66
2023-01-17T07:03:44.606Z,982.66
2023-01-17T07:04:44.580Z,982.70
2023-01-17T07:05:44.561Z,982.69
2023-01-17T07:06:44.560Z,982.68
2023-01-17T07:07:44.551Z,982.69
2023-01-17T07:08:44.541Z,982.67
2023-01-17T07:09:44.542Z,982.68
2023-01-17T07:10:44.530Z,982.69
2023-01-17T07:11:44.523Z,982.70
2023-01-17T07:12:44.516Z,982.69
2023-01-17T07:13:44.515Z,982.73
2023-01-17T07:14:44.533Z,982.75
2023-01-17T07:15:44.498Z,982.76
2023-01-17T07:16:44.489Z,982.73
2023-01-17T07:17:44.481Z,982.73
2023-01-17T07:18:44.521Z,982.69
2023-01-17T07:19:44.468Z,982.69
2023-01-17T07:20:44.460Z,982.72
2023-01-17T07:21:44.464Z,982.70
2023-01-17T07:22:44.451Z,982.74
2023-01-17T07:23:44.441Z,982.75
2023-01-17T07:24:44.438Z,982.70
2023-01-17T07:25:44.430Z,982.75
2023-01-17T07:26:44.424Z,982.71
2023-01-17T07:27:44.413Z,982.69
2023-01-17T07:28:44.417Z,982.73
2023-01-17T07:29:44.399Z,982.72
2023-01-17T07:30:44.416Z,982.73
2023-01-17T07:31:44.425Z,982.73
2023-01-17T07:32:44.383Z,982.72
2023-01-17T07:33:44.377Z,982.76
2023-01-17T07:34:44.367Z,982.75
2023-01-17T07:35:44.357Z,982.74
2023-01-17T07:36:44.385Z,982.76
2023-01-17T07:37:44.346Z,982.79
2023-01-17T07:38:44.340Z,982.79
2023-01-17T07:39:44.335Z,982.78
2023-01-17T07:40:44.333Z,982.77
2023-01-17T07:41:44.323Z,982.78
2023-01-17T07:42:44.330Z,982.80
2023-01-17T07:43:44.316Z,982.80
2023-01-17T07:44:44.303Z,982.81
2023-01-17T07:45:44.311Z,982.81
2023-01-17T07:46:44.430Z,982.82
2023-01-17T07:47:44.305Z,982.81
2023-01-17T07:48:44.284Z,982.82
2023-01-17T07:49:44.269Z,982.82
2023-01-17T07:50:44.274Z,982.83
2023-01-17T07:51:44.257Z,982.84
2023-01-17T07:52:44.249Z,982.85
2023-01-17T07:53:44.238Z,982.86
2023-01-17T07:54:44.236Z,982.83
2023-01-17T07:55:44.226Z,982.81
2023-01-17T07:56:44.220Z,982.81
2023-01-17T07:57:44.213Z,982.84
2023-01-17T07:58:44.209Z,982.83
2023-01-17T07:59:44.200Z,982.83
2023-01-17T08:00:44.243Z,982.81
2023-01-17T08:01:44.324Z,982.84
2023-01-17T08:02:44.213Z,982.81
2023-01-17T08:03:44.258Z,982.81
2023-01-17T08:04:44.168Z,982.77
2023-01-17T08:05:44.168Z,982.77
2023-01-17T08:06:44.160Z,982.74
2023-01-17T08:07:44.149Z,982.70
2023-01-17T08:08:44.147Z,982.72
2023-01-17T08:09:44.138Z,982.71
2023-01-17T08:10:44.132Z,982.73
2023-01-17T08:11:44.123Z,982.73
2023-01-17T08:12:44.116Z,982.75
2023-01-17T08:13:44.109Z,982.73
2023-01-17T08:14:44.107Z,982.76
2023-01-17T08:15:44.096Z,982.77
2023-01-17T08:16:44.136Z,982.75
2023-01-17T08:17:44.086Z,982.75
2023-01-17T08:18:44.098Z,982.79
2023-01-17T08:19:44.069Z,982.79
2023-01-17T08:20:44.069Z,982.78
2023-01-17T08:21:44.053Z,982.78
2023-01-17T08:22:44.063Z,982.75
2023-01-17T08:23:44.052Z,982.79
2023-01-17T08:24:44.036Z,982.74
2023-01-17T08:25:44.029Z,982.76
2023-01-17T08:26:44.024Z,982.78
2023-01-17T08:27:44.017Z,982.77
2023-01-17T08:28:44.010Z,982.74
2023-01-17T08:29:44.002Z,982.73
2023-01-17T08:30:43.996Z,982.75
2023-01-17T08:31:44.076Z,982.75
2023-01-17T08:32:43.984Z,982.73
2023-01-17T08:33:44.431Z,982.78
2023-01-17T08:34:43.996Z,982.81
2023-01-17T08:35:43.969Z,982.80
2023-01-17T08:36:43.964Z,982.81
2023-01-17T08:37:43.959Z,982.82
2023-01-17T08:38:43.956Z,982.87
2023-01-17T08:39:43.937Z,982.82
2023-01-17T08:40:44.408Z,982.86
2023-01-17T08:41:43.925Z,982.90
2023-01-17T08:42:43.921Z,982.90
2023-01-17T08:43:43.913Z,982.88
2023-01-17T08:44:43.907Z,982.93
2023-01-17T08:45:44.034Z,982.93
2023-01-17T08:46:43.893Z,982.88
2023-01-17T08:47:43.885Z,982.90
2023-01-17T08:48:43.888Z,982.88
2023-01-17T08:49:43.875Z,982.90
2023-01-17T08:50:43.921Z,982.91
2023-01-17T08:51:43.858Z,982.89
2023-01-17T08:52:43.853Z,982.90
2023-01-17T08:53:43.852Z,982.91
2023-01-17T08:54:43.854Z,982.88
2023-01-17T08:55:43.840Z,982.88
2023-01-17T08:56:43.850Z,982.87
2023-01-17T08:57:43.824Z,982.86
2023-01-17T08:58:43.817Z,982.83
2023-01-17T08:59:43.810Z,982.83
2023-01-17T09:00:43.896Z,982.79
2023-01-17T09:01:43.917Z,982.82
2023-01-17T09:02:43.788Z,982.80
2023-01-17T09:03:43.823Z,982.84
2023-01-17T09:04:43.780Z,982.82
2023-01-17T09:05:43.765Z,982.86
2023-01-17T09:06:43.790Z,982.84
2023-01-17T09:07:43.768Z,982.85
2023-01-17T09:08:46.338Z,982.84
2023-01-17T09:09:43.757Z,982.82
2023-01-17T09:10:43.736Z,982.82
2023-01-17T09:11:43.733Z,982.79
2023-01-17T09:12:43.731Z,982.76
2023-01-17T09:13:43.725Z,982.81
2023-01-17T09:14:43.717Z,982.80
2023-01-17T09:15:43.701Z,982.81
2023-01-17T09:16:43.816Z,982.84
2023-01-17T09:17:43.689Z,982.86
2023-01-17T09:18:43.693Z,982.86
2023-01-17T09:19:43.691Z,982.88
2023-01-17T09:20:43.670Z,982.88
2023-01-17T09:21:43.661Z,982.92
2023-01-17T09:22:45.646Z,982.96
2023-01-17T09:23:43.657Z,982.95
2023-01-17T09:24:43.645Z,982.97
2023-01-17T09:25:43.637Z,982.94
2023-01-17T09:26:43.636Z,982.96
2023-01-17T09:27:43.627Z,983.02
2023-01-17T09:28:43.621Z,983.00
2023-01-17T09:29:43.613Z,983.02
2023-01-17T09:30:43.618Z,983.01
2023-01-17T09:31:43.599Z,983.06
2023-01-17T09:32:43.595Z,983.06
2023-01-17T09:33:43.587Z,983.05
2023-01-17T09:34:43.585Z,983.06
2023-01-17T09:35:43.584Z,983.05
2023-01-17T09:36:43.574Z,983.04
2023-01-17T09:37:43.558Z,983.05
2023-01-17T09:38:43.842Z,983.07
2023-01-17T09:39:43.546Z,983.08
2023-01-17T09:40:43.546Z,983.08
2023-01-17T09:41:43.548Z,983.10
2023-01-17T09:42:43.529Z,983.10
2023-01-17T09:43:43.527Z,983.10
2023-01-17T09:44:43.518Z,983.15
2023-01-17T09:45:43.538Z,983.14
2023-01-17T09:46:43.505Z,983.15
2023-01-17T09:47:43.503Z,983.11
2023-01-17T09:48:43.496Z,983.16
2023-01-17T09:49:43.491Z,983.18
2023-01-17T09:50:43.480Z,983.16
2023-01-17T09:51:43.475Z,983.15
2023-01-17T09:52:43.478Z,983.13
2023-01-17T09:53:43.457Z,983.16
2023-01-17T09:54:43.487Z,983.15
2023-01-17T09:55:43.445Z,983.14
2023-01-17T09:56:43.438Z,983.17
2023-01-17T09:57:43.434Z,983.16
2023-01-17T09:58:43.427Z,983.19
2023-01-17T09:59:45.607Z,983.17
2023-01-17T10:00:43.415Z,983.17
2023-01-17T10:01:43.677Z,983.16
2023-01-17T10:02:43.581Z,983.18
2023-01-17T10:03:43.535Z,983.16
2023-01-17T10:04:43.433Z,983.21
2023-01-17T10:05:43.401Z,983.19
2023-01-17T10:06:43.375Z,983.19
2023-01-17T10:07:43.369Z,983.21
2023-01-17T10:08:43.361Z,983.23
2023-01-17T10:09:43.357Z,983.21
2023-01-17T10:10:43.371Z,983.19
2023-01-17T10:11:43.481Z,983.20
2023-01-17T10:12:43.334Z,983.17
2023-01-17T10:13:43.336Z,983.18
2023-01-17T10:14:43.330Z,983.19
2023-01-17T10:15:43.328Z,983.18
2023-01-17T10:16:43.372Z,983.23
2023-01-17T10:17:43.311Z,983.27
2023-01-17T10:18:43.313Z,983.29
2023-01-17T10:19:43.302Z,983.26
2023-01-17T10:20:43.284Z,983.30
2023-01-17T10:21:43.284Z,983.32
2023-01-17T10:22:43.282Z,983.32
2023-01-17T10:23:43.278Z,983.31
2023-01-17T10:24:43.260Z,983.35
2023-01-17T10:25:43.271Z,983.35
2023-01-17T10:26:43.266Z,983.33
2023-01-17T10:27:43.253Z,983.31
2023-01-17T10:28:43.240Z,983.27
2023-01-17T10:29:43.236Z,983.32
2023-01-17T10:30:43.344Z,983.27
2023-01-17T10:31:43.232Z,983.29
2023-01-17T10:32:43.213Z,983.29
2023-01-17T10:33:43.210Z,983.28
2023-01-17T10:34:43.198Z,983.23
2023-01-17T10:35:43.197Z,983.21
2023-01-17T10:36:43.195Z,983.23
2023-01-17T10:37:43.182Z,983.21
2023-01-17T10:38:43.173Z,983.17
2023-01-17T10:39:43.172Z,983.20
2023-01-17T10:40:43.161Z,983.15
2023-01-17T10:41:43.166Z,983.18
2023-01-17T10:42:43.177Z,983.19
2023-01-17T10:43:43.148Z,983.21
2023-01-17T10:44:43.144Z,983.24
2023-01-17T10:45:43.193Z,983.19
2023-01-17T10:46:43.127Z,983.23
2023-01-17T10:47:43.125Z,983.24
2023-01-17T10:48:43.117Z,983.24
2023-01-17T10:49:43.109Z,983.24
2023-01-17T10:50:43.117Z,983.28
2023-01-17T10:51:43.148Z,983.28
2023-01-17T10:52:43.093Z,983.28
2023-01-17T10:53:43.104Z,983.22
2023-01-17T10:54:43.075Z,983.25
2023-01-17T10:55:43.071Z,983.20
2023-01-17T10:56:43.073Z,983.22
2023-01-17T10:57:43.064Z,983.19
2023-01-17T10:58:43.098Z,983.18
2023-01-17T10:59:43.053Z,983.16
2023-01-17T11:00:43.044Z,983.22
2023-01-17T11:01:43.185Z,983.19
2023-01-17T11:02:43.121Z,983.22
2023-01-17T11:03:43.035Z,983.18
2023-01-17T11:04:43.019Z,983.15
2023-01-17T11:05:43.048Z,983.13
2023-01-17T11:06:57.372Z,983.14
2023-01-17T11:07:42.996Z,983.10
2023-01-17T11:08:42.993Z,983.10
2023-01-17T11:09:42.991Z,983.12
2023-01-17T11:10:42.973Z,983.08
2023-01-17T11:11:42.967Z,983.06
2023-01-17T11:12:42.966Z,983.09
2023-01-17T11:13:42.958Z,983.04
2023-01-17T11:14:42.973Z,983.07
2023-01-17T11:15:42.956Z,983.06
2023-01-17T11:16:42.934Z,983.04
2023-01-17T11:17:42.928Z,983.04
2023-01-17T11:18:42.920Z,983.03
2023-01-17T11:19:42.923Z,983.00
2023-01-17T11:20:42.910Z,983.02
2023-01-17T11:21:44.100Z,983.02
2023-01-17T11:22:42.907Z,983.00
2023-01-17T11:23:42.891Z,983.01
2023-01-17T11:24:42.880Z,983.02
2023-01-17T11:25:42.877Z,983.03
2023-01-17T11:26:42.871Z,982.99
2023-01-17T11:27:42.866Z,983.00
2023-01-17T11:28:42.857Z,982.97
2023-01-17T11:29:42.855Z,982.96
2023-01-17T11:30:42.903Z,982.97
2023-01-17T11:31:42.853Z,982.94
2023-01-17T11:32:42.832Z,982.92
2023-01-17T11:33:42.826Z,982.91
2023-01-17T11:34:42.818Z,982.93
2023-01-17T11:35:42.812Z,982.90
2023-01-17T11:36:42.804Z,982.87
2023-01-17T11:37:42.801Z,982.89
2023-01-17T11:38:42.794Z,982.86
2023-01-17T11:39:44.405Z,982.86
2023-01-17T11:40:42.793Z,982.90
2023-01-17T11:41:42.772Z,982.88
2023-01-17T11:42:42.765Z,982.92
2023-01-17T11:43:43.211Z,982.91
2023-01-17T11:44:42.753Z,982.91
2023-01-17T11:45:42.747Z,982.89
2023-01-17T11:46:42.762Z,982.86
2023-01-17T11:47:42.736Z,982.85
2023-01-17T11:48:42.725Z,982.86
2023-01-17T11:49:42.728Z,982.86
2023-01-17T11:50:42.713Z,982.87
2023-01-17T11:51:42.729Z,982.82
2023-01-17T11:52:42.712Z,982.82
2023-01-17T11:53:42.719Z,982.78
2023-01-17T11:54:42.706Z,982.75
2023-01-17T11:55:42.692Z,982.75
2023-01-17T11:56:43.285Z,982.71
2023-01-17T11:57:42.670Z,982.72
2023-01-17T11:58:42.662Z,982.69
2023-01-17T11:59:42.660Z,982.72
2023-01-17T12:00:42.675Z,982.78
2023-01-17T12:01:42.653Z,982.75
2023-01-17T12:02:42.661Z,982.73
2023-01-17T12:03:42.715Z,982.75
2023-01-17T12:04:42.690Z,982.74
2023-01-17T12:05:42.623Z,982.74
2023-01-17T12:06:56.826Z,982.74
2023-01-17T12:07:42.616Z,982.73
2023-01-17T12:08:42.600Z,982.73
2023-01-17T12:09:42.597Z,982.72
2023-01-17T12:10:42.583Z,982.71
2023-01-17T12:11:42.580Z,982.69
2023-01-17T12:12:42.599Z,982.67
2023-01-17T12:13:42.568Z,982.70
2023-01-17T12:14:42.558Z,982.72
2023-01-17T12:15:42.651Z,982.70
2023-01-17T12:16:42.554Z,982.72
2023-01-17T12:17:42.540Z,982.72
2023-01-17T12:18:42.554Z,982.72
2023-01-17T12:19:42.531Z,982.68
2023-01-17T12:20:42.520Z,982.68
2023-01-17T12:21:42.525Z,982.65
2023-01-17T12:22:42.509Z,982.65
2023-01-17T12:23:42.505Z,982.64
2023-01-17T12:24:42.495Z,982.65
2023-01-17T12:25:42.490Z,982.62
2023-01-17T12:26:42.484Z,982.65
2023-01-17T12:27:43.512Z,982.61
2023-01-17T12:28:42.468Z,982.64